createdAt,value
2018-11-22T12:17:14.188Z,11.10
2018-11-22T12:20:07.818Z,10.47
2018-11-22T12:22:38.175Z,10.27
2018-11-22T12:25:21.980Z,10.80
2018-11-22T12:28:03.934Z,11.00
2018-11-22T12:30:55.783Z,11.20
2018-11-22T12:36:37.412Z,10.77
2018-11-22T12:39:13.410Z,10.37
2018-11-22T12:41:55.240Z,10.30
2018-11-22T12:44:25.250Z,11.43
2018-11-22T12:47:07.106Z,11.63
2018-11-22T12:49:49.844Z,10.30
2018-11-22T12:52:33.234Z,10.70
2018-11-22T12:55:15.240Z,10.03
2018-11-22T12:57:45.272Z,11.83
2018-11-22T13:00:26.373Z,11.30
2018-11-22T13:03:21.041Z,10.20
2018-11-22T13:06:04.010Z,10.53
2018-11-22T13:08:46.190Z,10.63
2018-11-22T13:11:39.121Z,11.07
2018-11-22T13:14:28.180Z,10.07
2018-11-22T13:17:16.084Z,10.57
2018-11-22T13:19:58.545Z,10.77
2018-11-22T13:22:40.368Z,11.57
2018-11-22T13:25:19.417Z,11.07
2018-11-22T13:28:05.194Z,12.17
2018-11-22T13:30:56.877Z,11.13
2018-11-22T13:33:45.525Z,9.83
2018-11-22T13:36:28.498Z,13.53
2018-11-22T13:39:14.677Z,11.63
2018-11-22T13:41:56.372Z,10.03
2018-11-22T13:44:38.426Z,10.70
2018-11-22T13:47:20.743Z,10.93
2018-11-22T13:50:02.425Z,9.17
2018-11-22T13:55:12.796Z,9.60
2018-11-22T13:57:54.674Z,9.47
2018-11-22T14:00:36.625Z,9.70
2018-11-22T14:03:18.181Z,10.10
2018-11-22T14:06:00.237Z,9.70
2018-11-22T14:08:41.890Z,8.80
2018-11-22T14:11:31.662Z,9.93
2018-11-22T14:14:13.313Z,9.40
2018-11-22T14:16:56.528Z,10.03
2018-11-22T14:22:55.338Z,9.63
2018-11-22T14:25:36.627Z,10.93
2018-11-22T14:34:25.113Z,9.27
2018-11-22T14:36:55.080Z,9.43
2018-11-22T14:39:53.380Z,10.73
2018-11-22T14:42:35.702Z,10.97
2018-11-22T14:45:17.740Z,10.53
2018-11-22T14:48:16.157Z,10.97
2018-11-22T14:51:00.739Z,10.40
2018-11-22T14:53:44.277Z,10.20
2018-11-22T14:56:14.236Z,9.87
2018-11-22T14:58:56.455Z,10.40
2018-11-22T15:01:38.092Z,10.20
2018-11-22T15:04:19.831Z,10.20
2018-11-22T15:07:01.505Z,10.17
2018-11-22T15:09:44.170Z,10.47
2018-11-22T15:12:26.296Z,11.13
2018-11-22T15:15:09.093Z,10.40
2018-11-22T15:17:39.706Z,10.50
2018-11-22T15:20:21.940Z,10.00
2018-11-22T15:22:52.836Z,10.10
2018-11-22T15:25:36.135Z,10.10
2018-11-22T15:28:18.462Z,11.10
2018-11-22T15:31:00.694Z,10.10
2018-11-22T15:33:42.461Z,10.77
2018-11-22T15:36:24.919Z,10.63
2018-11-22T15:39:07.862Z,9.37
2018-11-22T15:41:50.373Z,10.10
2018-11-22T15:44:32.981Z,8.90
2018-11-22T15:47:14.841Z,10.07
2018-11-22T15:49:56.590Z,10.07
2018-11-22T15:52:38.421Z,10.50
2018-11-22T15:55:21.238Z,9.60
2018-11-22T15:58:03.158Z,8.97
2018-11-22T16:00:45.318Z,10.37
2018-11-22T16:03:15.262Z,10.03
2018-11-22T16:05:45.296Z,9.93
2018-11-22T16:08:27.874Z,9.70
2018-11-22T16:11:14.735Z,10.63
2018-11-22T16:13:51.356Z,10.03
2018-11-22T16:16:21.405Z,8.97
2018-11-22T16:19:03.665Z,9.77
2018-11-22T16:21:45.339Z,9.30
2018-11-22T16:24:27.078Z,9.57
2018-11-22T16:27:08.893Z,10.53
2018-11-22T16:29:51.598Z,9.77
2018-11-22T16:32:23.416Z,9.87
2018-11-22T16:34:53.417Z,10.53
2018-11-22T16:40:36.519Z,11.10
2018-11-22T16:43:06.761Z,9.97
2018-11-22T16:45:37.772Z,9.97
2018-11-22T16:48:09.723Z,10.40
2018-11-22T16:50:51.936Z,10.90
2018-11-22T16:56:34.040Z,10.20
2018-11-22T16:59:15.907Z,10.60
2018-11-22T17:01:57.628Z,9.33
2018-11-22T17:04:27.630Z,10.63
2018-11-22T17:07:09.566Z,12.00
2018-11-22T17:09:51.891Z,10.80
2018-11-22T17:12:21.880Z,9.50
2018-11-22T17:15:06.913Z,10.00
2018-11-22T17:17:49.563Z,11.20
2018-11-22T17:20:20.526Z,11.53
2018-11-22T17:23:14.968Z,9.93
2018-11-22T17:25:44.997Z,9.40
2018-11-22T17:28:15.084Z,11.87
2018-11-22T17:30:56.738Z,10.93
2018-11-22T17:33:38.227Z,10.43
2018-11-22T17:36:08.665Z,12.27
2018-11-22T17:38:51.107Z,10.87
2018-11-22T17:41:32.974Z,10.30
2018-11-22T17:44:15.371Z,9.80
2018-11-22T17:46:57.192Z,12.87
2018-11-22T17:49:38.872Z,12.70
2018-11-22T17:52:10.184Z,11.10
2018-11-22T17:54:51.929Z,10.20
2018-11-22T17:57:22.615Z,9.10
2018-11-22T18:00:05.233Z,9.80
2018-11-22T18:02:48.243Z,10.07
2018-11-22T18:05:30.454Z,11.37
2018-11-22T18:08:12.059Z,11.93
2018-11-22T18:10:42.861Z,13.10
2018-11-22T18:13:12.842Z,11.87
2018-11-22T18:15:59.822Z,12.07
2018-11-22T18:18:41.770Z,10.67
2018-11-22T18:21:24.274Z,9.70
2018-11-22T18:24:06.202Z,10.37
2018-11-22T18:26:47.878Z,9.67
2018-11-22T18:29:17.925Z,10.93
2018-11-22T18:32:00.510Z,10.10
2018-11-22T18:34:30.604Z,9.77
2018-11-22T18:37:12.431Z,11.17
2018-11-22T18:39:54.038Z,9.73
2018-11-22T18:42:45.419Z,10.83
2018-11-22T18:45:30.865Z,9.43
2018-11-22T18:48:02.353Z,10.63
2018-11-22T18:50:57.655Z,9.70
2018-11-22T18:53:42.196Z,10.40
2018-11-22T18:56:23.911Z,10.40
2018-11-22T18:59:05.864Z,11.10
2018-11-22T19:01:48.081Z,9.50
2018-11-22T19:04:30.029Z,10.33
2018-11-22T19:07:00.132Z,10.80
2018-11-22T19:09:41.813Z,9.30
2018-11-22T19:12:23.342Z,9.77
2018-11-22T19:14:53.285Z,9.03
2018-11-22T19:17:35.608Z,10.70
2018-11-22T19:20:19.482Z,10.30
2018-11-22T19:22:50.400Z,9.23
2018-11-22T19:25:21.035Z,13.50
2018-11-22T19:27:51.334Z,11.90
2018-11-22T19:30:37.279Z,10.43
2018-11-22T19:33:18.183Z,10.40
2018-11-22T19:36:00.671Z,9.47
2018-11-22T19:38:30.988Z,10.33
2018-11-22T19:41:00.996Z,10.67
2018-11-22T19:43:42.785Z,11.57
2018-11-22T19:46:25.322Z,10.10
2018-11-22T19:49:08.125Z,9.40
2018-11-22T19:51:50.858Z,8.87
2018-11-22T19:54:21.339Z,9.80
2018-11-22T19:56:51.411Z,9.23
2018-11-22T19:59:21.757Z,9.43
2018-11-22T20:01:51.874Z,9.57
2018-11-22T20:04:22.172Z,9.87
2018-11-22T20:07:12.001Z,8.53
2018-11-22T20:09:42.088Z,9.00
2018-11-22T20:12:12.112Z,9.53
2018-11-22T20:14:42.183Z,9.90
2018-11-22T20:17:12.245Z,9.20
2018-11-22T20:19:42.387Z,9.67
2018-11-22T20:22:12.401Z,9.83
2018-11-22T20:24:42.509Z,9.07
2018-11-22T20:27:12.569Z,9.20
2018-11-22T20:29:42.568Z,9.10
2018-11-22T20:32:25.214Z,9.17
2018-11-22T20:34:55.333Z,9.03
2018-11-22T20:37:25.773Z,8.90
2018-11-22T20:40:08.160Z,8.47
2018-11-22T20:42:38.815Z,8.47
2018-11-22T20:45:11.620Z,8.57
2018-11-22T20:47:42.438Z,8.87
2018-11-22T20:50:17.937Z,8.43
2018-11-22T20:52:47.977Z,9.83
2018-11-22T20:55:20.903Z,9.40
2018-11-22T20:57:52.716Z,9.23
2018-11-22T21:00:23.955Z,9.27
2018-11-22T21:02:54.296Z,9.00
2018-11-22T21:05:24.920Z,9.00
2018-11-22T21:07:55.776Z,8.63
2018-11-22T21:10:27.100Z,8.70
2018-11-22T21:12:57.232Z,8.70
2018-11-22T21:15:29.781Z,8.97
2018-11-22T21:18:11.827Z,8.17
2018-11-22T21:20:42.529Z,8.10
2018-11-22T21:23:12.558Z,8.73
2018-11-22T21:25:42.583Z,8.67
2018-11-22T21:28:12.598Z,8.50
2018-11-22T21:30:43.130Z,9.70
2018-11-22T21:33:13.162Z,8.63
2018-11-22T21:35:43.184Z,9.33
2018-11-22T21:38:13.243Z,8.27
2018-11-22T21:40:43.268Z,8.53
2018-11-22T21:43:13.304Z,8.17
2018-11-22T21:45:43.320Z,9.60
2018-11-22T21:48:13.278Z,8.57
2018-11-22T21:50:43.312Z,8.93
2018-11-22T21:53:13.311Z,10.03
2018-11-22T21:55:43.372Z,8.70
2018-11-22T21:58:13.399Z,8.90
2018-11-22T22:00:43.428Z,9.00
2018-11-22T22:03:14.096Z,9.07
2018-11-22T22:05:44.133Z,8.00
2018-11-22T22:08:14.178Z,9.17
2018-11-22T22:10:44.176Z,8.80
2018-11-22T22:13:14.248Z,9.23
2018-11-22T22:15:44.307Z,8.77
2018-11-22T22:18:21.014Z,9.10
2018-11-22T22:20:44.313Z,7.77
2018-11-22T22:23:14.299Z,9.50
2018-11-22T22:25:44.274Z,8.73
2018-11-22T22:28:14.187Z,8.40
2018-11-22T22:30:44.182Z,8.60
2018-11-22T22:33:25.636Z,8.03
2018-11-22T22:35:55.635Z,8.40
2018-11-22T22:38:25.564Z,8.23
2018-11-22T22:40:55.760Z,8.03
2018-11-22T22:43:25.771Z,8.73
2018-11-22T22:45:55.816Z,9.47
2018-11-22T22:48:25.815Z,8.67
2018-11-22T22:50:56.645Z,8.70
2018-11-22T22:53:26.553Z,9.03
2018-11-22T22:55:56.571Z,8.67
2018-11-22T22:58:26.588Z,8.13
2018-11-22T23:01:00.588Z,8.40
2018-11-22T23:03:31.452Z,9.00
2018-11-22T23:06:01.471Z,9.20
2018-11-22T23:08:31.459Z,8.30
2018-11-22T23:11:01.401Z,8.03
2018-11-22T23:13:31.417Z,7.93
2018-11-22T23:16:01.460Z,10.73
2018-11-22T23:18:31.504Z,8.30
2018-11-22T23:21:01.493Z,8.67
2018-11-22T23:23:31.469Z,9.37
2018-11-22T23:26:01.471Z,10.17
2018-11-22T23:28:31.489Z,8.07
2018-11-22T23:31:01.517Z,7.87
2018-11-22T23:33:31.525Z,8.10
2018-11-22T23:36:01.546Z,9.20
2018-11-22T23:38:31.476Z,8.00
2018-11-22T23:41:01.519Z,8.67
2018-11-22T23:43:31.517Z,8.27
2018-11-22T23:46:01.538Z,8.87
2018-11-22T23:48:31.567Z,8.30
2018-11-22T23:51:01.586Z,8.13
2018-11-22T23:53:31.600Z,8.00
2018-11-22T23:56:01.611Z,8.50
2018-11-22T23:58:31.594Z,8.23
